Flight Track Log - Related Links

Times and Time Zones

All times are in EST time to prevent confusion due to time zone crossing. See the PDT4207 flight status page for this flight to view local times or setup timezone preferences in your user account.

Time Position Orientation Groundspeed Altitude Reporting Facility
EST Latitude Longitude Course Direction KTS MPH feet Rate Location/Type
Sun 09:56:06 PM 39.9000 -75.2333 311° West 122 140 500  Level Philadelphia TRACON
Sun 09:56:12 PM 39.9000 -75.2333 311° West 116 133 800 1,455 Climbing Philadelphia TRACON
Sun 09:57:12 PM 39.9000 -75.2833 270° West 128 147 2,100 1,350 Climbing Philadelphia TRACON
Sun 09:58:00 PM 40.0635 -75.4135 323° Northwest  Level FlightAware Approximate
Sun 09:58:12 PM 39.9167 -75.3167 303° West 113 130 3,500  Level Philadelphia TRACON
Sun 09:59:00 PM 40.1258 -75.4758 323° Northwest  Level FlightAware Approximate
Sun 09:59:12 PM 39.9167 -75.3667 270° West 113 130 4,600  Level Philadelphia TRACON
Sun 10:00:00 PM 40.1894 -75.5341 311° West  Level FlightAware Approximate
Sun 10:00:12 PM 39.9333 -75.4000 303° West 118 136 5,600  Level Philadelphia TRACON
Sun 10:01:00 PM 40.2488 -75.5982 311° West  Level FlightAware Approximate
Sun 10:01:12 PM 39.9500 -75.4500 294° West 131 151 6,600  Level Philadelphia TRACON
Sun 10:02:12 PM 39.9833 -75.4833 323° Northwest 162 186 7,600 900 Climbing Philadelphia TRACON
Sun 10:03:12 PM 40.0333 -75.5000 346° North 188 216 8,400 857 Climbing Philadelphia TRACON
Sun 10:04:18 PM 40.0764 -75.5156 345° North 202 232 9,400 1,095 Climbing New York Center
Sun 10:05:18 PM 40.1342 -75.5331 347° North 202 232 10,700 1,150 Climbing New York Center
Sun 10:06:18 PM 40.1836 -75.5444 350° North 202 232 11,700 700 Climbing New York Center
Sun 10:07:18 PM 40.2436 -75.5542 353° North 212 244 12,100 200 Climbing New York Center
Sun 10:08:18 PM 40.3117 -75.5725 348° North 231 266 12,100  Level New York Center
Sun 10:09:18 PM 40.3881 -75.5914 349° North 248 285 12,100  Level New York Center
Sun 10:10:18 PM 40.4625 -75.6075 351° North 259 298 12,100  Level New York Center
Sun 10:11:18 PM 40.5392 -75.6211 352° North 265 305 12,100  Level New York Center
Sun 10:12:18 PM 40.6075 -75.6314 353° North 271 312 12,100  Level New York Center
Sun 10:13:18 PM 40.6819 -75.6394 355° North 271 312 12,100  Level New York Center
Sun 10:14:18 PM 40.7644 -75.6617 348° North 276 318 12,100  Level New York Center
Sun 10:15:18 PM 40.8386 -75.6833 348° North 271 312 12,100  Level New York Center
Sun 10:16:18 PM 40.9133 -75.6917 355° North 271 312 12,100  Level New York Center
Sun 10:17:18 PM 40.9794 -75.7019 353° North 271 312 12,100 -50 Level New York Center
Sun 10:18:18 PM 41.0539 -75.7156 352° North 271 312 12,000 -50 Descending New York Center
Sun 10:19:18 PM 41.1194 -75.7425 343° North 260 299 12,000  Level New York Center
Sun 10:20:18 PM 41.1978 -75.7619 349° North 255 293 12,000  Level New York Center
Sun 10:21:18 PM 41.2536 -75.7717 353° North 255 293 12,000  Level New York Center
Sun 10:22:18 PM 41.3281 -75.7828 354° North 255 293 12,000  Level New York Center
Sun 10:23:18 PM 41.3942 -75.8014 348° North 250 288 12,000  Level New York Center
Sun 10:24:18 PM 41.4581 -75.8172 349° North 244 281 12,000  Level New York Center
Sun 10:25:18 PM 41.5281 -75.8336 350° North 234 269 12,000 -200 Level New York Center
Sun 10:26:18 PM 41.5900 -75.8467 351° North 234 269 11,600 -500 Descending New York Center
Sun 10:27:18 PM 41.6578 -75.8656 348° North 239 275 11,000 -650 Descending New York Center
Sun 10:28:18 PM 41.7175 -75.8814 349° North 239 275 10,300 -900 Descending New York Center
Sun 10:29:18 PM 41.7856 -75.9003 348° North 239 275 9,200 -1,250 Descending New York Center
Sun 10:30:18 PM 41.8575 -75.9200 348° North 239 275 7,800 -1,250 Descending New York Center
Sun 10:31:18 PM 41.9236 -75.9306 353° North 239 275 6,700 -1,150 Descending New York Center
Sun 10:32:18 PM 41.9919 -75.9389 355° North 239 275 5,500 -1,150 Descending New York Center
Sun 10:33:18 PM 42.0486 -75.9319 North 234 269 4,400 -850 Descending New York Center
Sun 10:34:18 PM 42.1028 -75.9278 North 219 252 3,800 -700 Descending New York Center
Sun 10:35:18 PM 42.1467 -75.9283 359° North 185 213 3,000 -800 Descending New York Center
Sun 10:36:18 PM 42.1767 -75.9558 326° Northwest 144 166 2,200 -500 Descending New York Center
Sun 10:37:18 PM 42.2219 -75.9681 349° North 136 157 2,000 -200 Descending New York Center

Login

Don't have an account? Register now (free) for customized features, flight alerts, and more!